createdAt,value
2022-10-25T00:03:35.637Z,3.45
2022-10-25T00:08:38.452Z,4.03
2022-10-25T00:13:41.005Z,3.92
2022-10-25T00:18:44.897Z,5.13
2022-10-25T00:23:48.282Z,2.85
2022-10-25T00:28:54.399Z,8.40
2022-10-25T00:33:58.387Z,3.65
2022-10-25T00:39:01.014Z,6.72
2022-10-25T00:44:46.519Z,6.97
2022-10-25T00:49:56.489Z,3.60
2022-10-25T00:55:00.805Z,3.78
2022-10-25T01:05:09.443Z,5.78
2022-10-25T01:10:12.415Z,5.20
2022-10-25T01:15:15.341Z,7.13
2022-10-25T01:20:53.721Z,5.25
2022-10-25T01:26:18.612Z,4.32
2022-10-25T01:31:31.972Z,3.88
2022-10-25T01:36:46.638Z,4.53
2022-10-25T01:42:01.851Z,4.55
2022-10-25T01:47:10.424Z,3.63
2022-10-25T01:52:13.707Z,7.63
2022-10-25T01:57:35.288Z,4.65
2022-10-25T02:03:01.961Z,6.93
2022-10-25T02:08:10.148Z,16.40
2022-10-25T02:13:19.323Z,7.53
2022-10-25T02:18:26.937Z,5.43
2022-10-25T02:23:31.168Z,3.25
2022-10-25T02:28:35.810Z,3.88
2022-10-25T02:33:39.879Z,5.97
2022-10-25T02:38:43.287Z,7.15
2022-10-25T02:43:46.029Z,5.47
2022-10-25T02:48:50.421Z,5.88
2022-10-25T02:58:57.569Z,7.93
2022-10-25T03:04:01.510Z,7.35
2022-10-25T03:09:04.652Z,11.80
2022-10-25T03:14:07.290Z,8.48
2022-10-25T03:19:11.410Z,5.32
2022-10-25T03:24:14.138Z,4.00
2022-10-25T03:29:16.734Z,4.60
2022-10-25T03:34:20.698Z,8.50
2022-10-25T03:39:23.252Z,3.20
2022-10-25T03:44:25.881Z,3.80
2022-10-25T03:49:29.782Z,3.47
2022-10-25T03:54:32.579Z,8.80
2022-10-25T03:59:35.147Z,5.55
2022-10-25T04:04:39.123Z,3.55
2022-10-25T04:09:41.695Z,2.20
2022-10-25T04:14:44.300Z,5.93
2022-10-25T04:19:48.263Z,3.95
2022-10-25T04:24:50.895Z,3.67
2022-10-25T04:29:53.452Z,3.85
2022-10-25T04:35:00.582Z,3.30
2022-10-25T04:40:03.239Z,5.65
2022-10-25T04:45:06.559Z,8.07
2022-10-25T04:50:11.085Z,5.57
2022-10-25T05:00:16.266Z,3.05
2022-10-25T05:05:20.718Z,5.90
2022-10-25T05:15:25.806Z,3.13
2022-10-25T05:20:30.120Z,4.93
2022-10-25T05:25:32.640Z,3.08
2022-10-25T05:30:35.244Z,3.63
2022-10-25T05:35:39.198Z,3.45
2022-10-25T05:40:41.999Z,5.68
2022-10-25T05:45:44.536Z,5.90
2022-10-25T05:50:51.604Z,2.63
2022-10-25T05:56:00.755Z,5.15
2022-10-25T06:01:03.351Z,3.05
2022-10-25T06:06:10.422Z,2.05
2022-10-25T06:11:15.015Z,5.72
2022-10-25T06:16:20.125Z,4.25
2022-10-25T06:21:26.162Z,5.50
2022-10-25T06:26:31.724Z,8.93
2022-10-25T06:31:34.675Z,5.32
2022-10-25T06:36:38.760Z,5.30
2022-10-25T06:41:41.373Z,3.90
2022-10-25T06:47:12.028Z,3.95
2022-10-25T06:52:08.304Z,5.95
2022-10-25T06:57:10.953Z,4.68
2022-10-25T07:02:13.782Z,6.65
2022-10-25T07:07:17.823Z,2.80
2022-10-25T07:12:20.431Z,6.30
2022-10-25T07:17:23.056Z,4.18
2022-10-25T07:22:27.243Z,3.50
2022-10-25T07:27:33.045Z,4.40
2022-10-25T07:32:40.016Z,3.00
2022-10-25T07:37:46.094Z,4.93
2022-10-25T07:42:50.285Z,4.55
2022-10-25T07:47:53.106Z,3.95
2022-10-25T07:52:57.668Z,6.43
2022-10-25T07:58:01.753Z,3.65
2022-10-25T08:03:04.960Z,7.60
2022-10-25T08:08:09.349Z,2.45
2022-10-25T08:18:14.763Z,5.45
2022-10-25T08:23:18.890Z,3.25
2022-10-25T08:28:21.832Z,2.53
2022-10-25T08:33:25.048Z,3.78
2022-10-25T08:38:29.211Z,3.58
2022-10-25T08:43:49.814Z,5.65
2022-10-25T08:48:57.799Z,3.90
2022-10-25T08:54:06.466Z,6.10
2022-10-25T08:59:13.446Z,4.50
2022-10-25T09:04:16.445Z,3.97
2022-10-25T09:09:34.199Z,2.03
2022-10-25T09:14:49.243Z,4.28
2022-10-25T09:20:04.422Z,12.93
2022-10-25T09:25:21.775Z,4.30
2022-10-25T09:30:24.511Z,5.75
2022-10-25T09:35:34.014Z,3.60
2022-10-25T09:40:47.940Z,3.83
2022-10-25T09:45:54.240Z,1.52
2022-10-25T09:51:05.221Z,2.45
2022-10-25T09:56:09.478Z,1.23
2022-10-25T10:11:24.505Z,2.60
2022-10-25T10:16:31.795Z,2.78
2022-10-25T10:21:36.945Z,6.38
2022-10-25T10:26:47.519Z,2.97
2022-10-25T10:31:52.832Z,2.78
2022-10-25T10:37:08.306Z,2.70
2022-10-25T10:42:17.890Z,1.73
2022-10-25T10:47:24.510Z,4.60
2022-10-25T10:52:31.308Z,2.78
2022-10-25T10:57:36.373Z,3.47
2022-10-25T11:02:42.055Z,4.00
2022-10-25T11:07:44.962Z,6.03
2022-10-25T11:13:06.438Z,1.63
2022-10-25T11:18:11.473Z,2.80
2022-10-25T11:23:22.559Z,3.28
2022-10-25T11:28:42.691Z,3.88
2022-10-25T11:33:58.884Z,1.42
2022-10-25T11:39:12.254Z,4.97
2022-10-25T11:44:45.726Z,3.65
2022-10-25T11:49:59.470Z,2.97
2022-10-25T11:55:12.198Z,9.43
2022-10-25T12:00:19.660Z,3.53
2022-10-25T12:05:29.676Z,3.45
2022-10-25T12:10:36.707Z,2.30
2022-10-25T12:15:46.460Z,3.97
2022-10-25T12:20:51.015Z,3.72
2022-10-25T12:25:57.735Z,2.67
2022-10-25T12:31:07.781Z,2.30
2022-10-25T12:36:24.000Z,2.53
2022-10-25T12:41:30.515Z,3.03
2022-10-25T12:47:16.938Z,1.58
2022-10-25T12:52:29.357Z,1.63
2022-10-25T12:57:47.400Z,2.03
2022-10-25T13:03:30.100Z,3.45
2022-10-25T13:08:34.034Z,3.90
2022-10-25T13:13:40.140Z,2.92
2022-10-25T13:18:46.100Z,3.53
2022-10-25T13:24:02.806Z,1.98
2022-10-25T13:29:46.771Z,1.70
2022-10-25T13:34:50.878Z,2.63
2022-10-25T13:39:55.232Z,1.00
2022-10-25T13:45:00.723Z,4.22
2022-10-25T13:50:13.926Z,2.78
2022-10-25T13:55:21.426Z,2.00
2022-10-25T14:00:39.075Z,4.97
2022-10-25T14:06:22.817Z,1.92
2022-10-25T14:11:35.287Z,2.57
2022-10-25T14:16:45.240Z,3.60
2022-10-25T14:21:51.652Z,4.93
2022-10-25T14:26:56.491Z,3.10
2022-10-25T14:31:59.735Z,4.35
2022-10-25T14:37:04.860Z,3.35
2022-10-25T14:42:17.291Z,1.77
2022-10-25T14:47:40.829Z,6.35
2022-10-25T14:52:47.043Z,4.05
2022-10-25T14:57:49.977Z,6.47
2022-10-25T15:02:56.681Z,4.38
2022-10-25T15:08:01.765Z,6.22
2022-10-25T15:13:36.452Z,2.45
2022-10-25T15:18:39.813Z,3.53
2022-10-25T15:24:29.729Z,2.67
2022-10-25T15:34:58.363Z,3.40
2022-10-25T15:40:01.148Z,3.97
2022-10-25T15:45:05.950Z,4.25
2022-10-25T15:50:15.333Z,5.78
2022-10-25T15:55:20.372Z,3.58
2022-10-25T16:00:28.126Z,7.80
2022-10-25T16:05:33.173Z,6.35
2022-10-25T16:10:36.158Z,2.97
2022-10-25T16:15:40.255Z,5.20
2022-10-25T16:20:43.394Z,5.53
2022-10-25T16:25:46.115Z,7.50
2022-10-25T16:30:50.115Z,6.07
2022-10-25T16:35:52.707Z,5.05
2022-10-25T16:40:57.095Z,3.67
2022-10-25T16:51:03.639Z,4.00
2022-10-25T16:56:07.806Z,5.32
2022-10-25T17:01:21.330Z,17.70
2022-10-25T17:11:47.266Z,6.43
2022-10-25T17:16:51.199Z,6.45
2022-10-25T17:21:53.896Z,6.70
2022-10-25T17:26:56.527Z,8.70
2022-10-25T17:32:01.193Z,11.45
2022-10-25T17:37:03.838Z,10.02
2022-10-25T17:42:06.651Z,9.27
2022-10-25T17:47:12.590Z,13.55
2022-10-25T17:52:15.206Z,16.42
2022-10-25T17:57:17.882Z,7.32
2022-10-25T18:02:21.992Z,9.68
2022-10-25T18:07:28.940Z,12.30
2022-10-25T18:12:33.846Z,9.57
2022-10-25T18:17:37.764Z,7.15
2022-10-25T18:22:40.447Z,10.38
2022-10-25T18:27:45.415Z,9.82
2022-10-25T18:32:49.718Z,9.18
2022-10-25T18:37:52.397Z,7.45
2022-10-25T18:42:54.981Z,11.32
2022-10-25T18:47:59.287Z,11.02
2022-10-25T18:53:02.739Z,10.70
2022-10-25T18:58:06.959Z,9.60
2022-10-25T19:03:12.721Z,8.35
2022-10-25T19:08:15.388Z,11.63
2022-10-25T19:13:19.725Z,11.15
2022-10-25T19:18:25.368Z,5.45
2022-10-25T19:23:27.968Z,8.40
2022-10-25T19:28:30.718Z,10.15
2022-10-25T19:33:34.853Z,9.05
2022-10-25T19:38:38.932Z,7.68
2022-10-25T19:43:41.541Z,5.95
2022-10-25T19:48:45.940Z,9.95
2022-10-25T19:53:49.653Z,10.93
2022-10-25T19:58:52.521Z,8.50
2022-10-25T20:03:58.683Z,13.55
2022-10-25T20:09:02.569Z,16.25
2022-10-25T20:14:05.345Z,10.88
2022-10-25T20:19:13.126Z,12.20
2022-10-25T20:24:15.956Z,9.88
2022-10-25T20:29:21.560Z,10.15
2022-10-25T20:34:25.721Z,12.55
2022-10-25T20:39:28.368Z,12.90
2022-10-25T20:44:30.958Z,9.85
2022-10-25T20:49:34.979Z,7.70
2022-10-25T20:54:37.611Z,11.00
2022-10-25T20:59:40.253Z,13.82
2022-10-25T21:04:53.349Z,11.43
2022-10-25T21:09:56.492Z,9.23
2022-10-25T21:14:59.039Z,8.65
2022-10-25T21:20:03.052Z,12.20
2022-10-25T21:25:06.481Z,8.48
2022-10-25T21:30:10.169Z,12.85
2022-10-25T21:35:14.230Z,8.90
2022-10-25T21:40:17.701Z,13.23
2022-10-25T21:45:20.617Z,7.95
2022-10-25T21:50:24.791Z,8.80
2022-10-25T21:55:27.402Z,5.25
2022-10-25T22:00:29.964Z,12.02
2022-10-25T22:05:33.930Z,9.25
2022-10-25T22:10:36.600Z,12.52
2022-10-25T22:15:39.107Z,7.63
2022-10-25T22:20:43.073Z,10.07
2022-10-25T22:25:45.866Z,12.02
2022-10-25T22:30:48.470Z,6.78
2022-10-25T22:35:52.426Z,10.13
2022-10-25T22:40:59.041Z,4.30
2022-10-25T22:46:01.843Z,8.63
2022-10-25T22:51:06.574Z,9.32
2022-10-25T22:56:12.240Z,9.93
2022-10-25T23:01:17.139Z,7.05
2022-10-25T23:06:22.939Z,6.13
2022-10-25T23:11:27.600Z,6.10
2022-10-25T23:16:30.933Z,4.70
2022-10-25T23:21:34.967Z,5.90
2022-10-25T23:26:37.562Z,8.25
2022-10-25T23:31:40.161Z,4.57
2022-10-25T23:36:44.458Z,9.15
2022-10-25T23:41:47.222Z,4.88
2022-10-25T23:46:49.814Z,5.50
2022-10-25T23:51:53.800Z,6.70
2022-10-25T23:56:56.555Z,3.53
